Time;durP1;ratioP1;P1;durP2;ratioP2;P2;SDS_P1;SDS_P2;PMS_P1;PMS_P2;Temp;Humidity;BMP_temperature;BMP_pressure;BME280_temperature;BME280_humidity;BME280_pressure;Samples;Min_cycle;Max_cycle;Signal;HPM_P1;HPM_P2
2022/10/13 00:01:35;;;;;;;;;;;;;;;;;;5152949;27;20006;-80
2022/10/13 00:04:01;;;;;;;;;;;;;;;;;;5153011;27;19977;-80
2022/10/13 00:06:27;;;;;;;;;;;;;;;;;;5152505;27;19907;-80
2022/10/13 00:08:53;;;;;;;;;;;;;;;;;;5152827;27;19947;-79
2022/10/13 00:11:19;;;;;;;;;;;;;;;;;;5153058;27;20416;-81
2022/10/13 00:13:45;;;;;;;;;;;;;;;;;;5152347;27;19907;-79
2022/10/13 00:16:11;;;;;;;;;;;;;;;;;;5152687;27;19914;-81
2022/10/13 00:21:13;;;;;;;;;;;;;;;;;;5111405;27;19916;-79
2022/10/13 00:23:39;;;;;;;;;;;;;;;;;;5111799;28;20027;-79
2022/10/13 00:26:05;;;;;;;;;;;;;;;;;;5111684;28;19912;-80
2022/10/13 00:28:32;;;;;;;;;;;;;;;;;;5111378;28;20418;-79
2022/10/13 00:30:58;;;;;;;;;;;;;;;;;;5111625;28;19908;-81
2022/10/13 00:33:23;;;;;;;;;;;;;;;;;;5111537;28;19919;-80
2022/10/13 00:36:38;;;;;;;;;;;;;;;;;;5091111;27;19922;-80
2022/10/13 00:39:33;;;;;;;;;;;;;;;;;;5112152;27;19922;-80
2022/10/13 00:41:58;;;;;;;;;;;;;;;;;;5111401;28;19999;-79
2022/10/13 00:44:24;;;;;;;;;;;;;;;;;;5111701;28;19911;-80
2022/10/13 00:46:50;;;;;;;;;;;;;;;;;;5111643;28;19908;-80
2022/10/13 00:49:16;;;;;;;;;;;;;;;;;;5111286;28;19914;-79
2022/10/13 00:51:42;;;;;;;;;;;;;;;;;;5111880;28;19911;-79
2022/10/13 00:54:08;;;;;;;;;;;;;;;;;;5111538;28;19933;-80
2022/10/13 00:56:34;;;;;;;;;;;;;;;;;;5111124;28;19908;-79
2022/10/13 00:59:00;;;;;;;;;;;;;;;;;;5111500;28;19923;-79
2022/10/13 01:01:26;;;;;;;;;;;;;;;;;;5111392;28;19908;-79
2022/10/13 01:04:16;;;;;;;;;;;;;;;;;;5091385;27;19917;-79
2022/10/13 01:06:42;;;;;;;;;;;;;;;;;;5091494;28;19913;-79
2022/10/13 01:09:08;;;;;;;;;;;;;;;;;;5091409;28;19963;-81
2022/10/13 01:11:33;;;;;;;;;;;;;;;;;;5090992;28;19934;-80
2022/10/13 01:13:59;;;;;;;;;;;;;;;;;;5091292;28;20376;-80
2022/10/13 01:17:16;;;;;;;;;;;;;;;;;;5091441;27;19991;-82
2022/10/13 01:19:42;;;;;;;;;;;;;;;;;;5091403;28;20003;-79
2022/10/13 01:22:08;;;;;;;;;;;;;;;;;;5091412;28;19916;-79
2022/10/13 01:24:34;;;;;;;;;;;;;;;;;;5090970;28;19955;-79
2022/10/13 01:28:08;;;;;;;;;;;;;;;;;;5112649;27;20379;-79
2022/10/13 01:32:07;;;;;;;;;;;;;;;;;;5091259;27;19916;-79
2022/10/13 01:34:33;;;;;;;;;;;;;;;;;;5091469;28;20003;-80
2022/10/13 01:36:59;;;;;;;;;;;;;;;;;;5091616;28;19909;-81
2022/10/13 01:39:25;;;;;;;;;;;;;;;;;;5090963;28;20391;-80
2022/10/13 01:41:51;;;;;;;;;;;;;;;;;;5091268;28;20370;-81
2022/10/13 01:44:18;;;;;;;;;;;;;;;;;;5091594;28;20323;-81
2022/10/13 01:46:44;;;;;;;;;;;;;;;;;;5089641;28;19915;-81
2022/10/13 01:49:10;;;;;;;;;;;;;;;;;;5091152;28;19958;-81
2022/10/13 01:51:36;;;;;;;;;;;;;;;;;;5091081;28;19917;-81
2022/10/13 01:54:02;;;;;;;;;;;;;;;;;;5090736;28;19916;-81
2022/10/13 01:56:28;;;;;;;;;;;;;;;;;;5089706;28;19908;-81
2022/10/13 01:58:53;;;;;;;;;;;;;;;;;;5091130;28;19920;-81
2022/10/13 02:01:19;;;;;;;;;;;;;;;;;;5091002;28;19908;-81
2022/10/13 02:03:45;;;;;;;;;;;;;;;;;;5091520;28;20372;-80
2022/10/13 02:06:11;;;;;;;;;;;;;;;;;;5090527;28;19930;-81
2022/10/13 02:08:37;;;;;;;;;;;;;;;;;;5090732;28;19908;-81
2022/10/13 02:11:03;;;;;;;;;;;;;;;;;;5090859;28;19942;-81
2022/10/13 02:13:29;;;;;;;;;;;;;;;;;;5090361;28;19951;-81
2022/10/13 02:18:30;;;;;;;;;;;;;;;;;;5111869;27;19922;-79
2022/10/13 02:20:56;;;;;;;;;;;;;;;;;;5110144;28;19999;-79
2022/10/13 02:23:22;;;;;;;;;;;;;;;;;;5111706;28;19998;-79
2022/10/13 02:25:48;;;;;;;;;;;;;;;;;;5111819;28;20376;-79
2022/10/13 02:28:14;;;;;;;;;;;;;;;;;;5111282;28;19908;-79
2022/10/13 02:30:40;;;;;;;;;;;;;;;;;;5111632;28;19908;-79
2022/10/13 02:33:06;;;;;;;;;;;;;;;;;;5111597;28;19908;-79
2022/10/13 02:35:32;;;;;;;;;;;;;;;;;;5111221;28;19908;-79
2022/10/13 02:38:19;;;;;;;;;;;;;;;;;;5091997;28;20368;-79
2022/10/13 02:42:51;;;;;;;;;;;;;;;;;;5111684;27;19916;-79
2022/10/13 02:45:17;;;;;;;;;;;;;;;;;;5111832;28;20019;-79
2022/10/13 02:47:43;;;;;;;;;;;;;;;;;;5111727;28;19908;-79
2022/10/13 02:50:09;;;;;;;;;;;;;;;;;;5111321;28;20433;-79
2022/10/13 02:53:47;;;;;;;;;;;;;;;;;;5112197;27;19916;-79
2022/10/13 02:56:13;;;;;;;;;;;;;;;;;;5111428;28;19912;-79
2022/10/13 02:58:39;;;;;;;;;;;;;;;;;;5111717;28;19908;-79
2022/10/13 03:01:05;;;;;;;;;;;;;;;;;;5111740;28;19912;-79
2022/10/13 03:03:30;;;;;;;;;;;;;;;;;;5111236;28;19909;-79
2022/10/13 03:05:56;;;;;;;;;;;;;;;;;;5111639;28;19918;-79
2022/10/13 03:08:23;;;;;;;;;;;;;;;;;;5111925;28;19908;-79
2022/10/13 03:10:49;;;;;;;;;;;;;;;;;;5111341;28;19978;-79
2022/10/13 03:13:15;;;;;;;;;;;;;;;;;;5111976;28;20367;-79
2022/10/13 03:15:41;;;;;;;;;;;;;;;;;;5111495;28;19915;-79
2022/10/13 03:18:07;;;;;;;;;;;;;;;;;;5110906;28;19969;-79
2022/10/13 03:20:33;;;;;;;;;;;;;;;;;;5111354;28;20425;-79
2022/10/13 03:22:59;;;;;;;;;;;;;;;;;;5111220;28;20372;-81
2022/10/13 03:25:25;;;;;;;;;;;;;;;;;;5110906;28;19908;-79
2022/10/13 03:27:51;;;;;;;;;;;;;;;;;;5111217;28;19908;-79
2022/10/13 03:30:17;;;;;;;;;;;;;;;;;;5110779;28;19908;-80
2022/10/13 03:32:43;;;;;;;;;;;;;;;;;;5111007;28;19916;-79
2022/10/13 03:35:36;;;;;;;;;;;;;;;;;;5112269;27;20406;-79
2022/10/13 03:38:02;;;;;;;;;;;;;;;;;;5111393;28;19999;-79
2022/10/13 03:40:28;;;;;;;;;;;;;;;;;;5111798;28;20330;-79
2022/10/13 03:42:54;;;;;;;;;;;;;;;;;;5111678;28;19952;-79
2022/10/13 03:45:20;;;;;;;;;;;;;;;;;;5111246;28;19908;-79
2022/10/13 03:47:46;;;;;;;;;;;;;;;;;;5111744;28;19916;-79
2022/10/13 03:50:12;;;;;;;;;;;;;;;;;;5111552;28;19908;-79
2022/10/13 03:52:38;;;;;;;;;;;;;;;;;;5111178;28;19908;-79
2022/10/13 03:55:03;;;;;;;;;;;;;;;;;;5111385;28;19957;-79
2022/10/13 03:57:29;;;;;;;;;;;;;;;;;;5111356;28;19915;-79
2022/10/13 03:59:56;;;;;;;;;;;;;;;;;;5111109;28;19912;-79
2022/10/13 04:02:22;;;;;;;;;;;;;;;;;;5111298;28;20292;-79
2022/10/13 04:04:48;;;;;;;;;;;;;;;;;;5111522;28;19908;-79
2022/10/13 04:07:14;;;;;;;;;;;;;;;;;;5110743;28;20376;-79
2022/10/13 04:09:40;;;;;;;;;;;;;;;;;;5111144;28;19948;-81
2022/10/13 04:12:06;;;;;;;;;;;;;;;;;;5111158;28;20394;-80
2022/10/13 04:14:32;;;;;;;;;;;;;;;;;;5110638;28;19916;-80
2022/10/13 04:16:58;;;;;;;;;;;;;;;;;;5111015;28;19946;-80
2022/10/13 04:19:24;;;;;;;;;;;;;;;;;;5111082;28;20322;-80
2022/10/13 04:21:50;;;;;;;;;;;;;;;;;;5110588;28;19994;-80
2022/10/13 04:24:19;;;;;;;;;;;;;;;;;;5110991;28;19965;-80
2022/10/13 04:26:45;;;;;;;;;;;;;;;;;;5110871;28;19908;-81
2022/10/13 04:29:11;;;;;;;;;;;;;;;;;;5110804;28;20007;-81
2022/10/13 04:31:37;;;;;;;;;;;;;;;;;;5111231;28;19948;-81
2022/10/13 04:34:03;;;;;;;;;;;;;;;;;;5110072;28;19927;-80
2022/10/13 04:36:29;;;;;;;;;;;;;;;;;;5110671;28;19912;-80
2022/10/13 04:38:55;;;;;;;;;;;;;;;;;;5110733;28;19922;-80
2022/10/13 04:41:21;;;;;;;;;;;;;;;;;;5110545;28;19908;-80
2022/10/13 04:43:47;;;;;;;;;;;;;;;;;;5110568;28;20427;-80
2022/10/13 04:46:13;;;;;;;;;;;;;;;;;;5100990;28;19908;-80
2022/10/13 04:48:39;;;;;;;;;;;;;;;;;;5096475;28;19908;-80
2022/10/13 04:51:05;;;;;;;;;;;;;;;;;;5096771;28;19908;-81
2022/10/13 04:53:30;;;;;;;;;;;;;;;;;;5096584;28;19913;-81
2022/10/13 04:55:56;;;;;;;;;;;;;;;;;;5096345;28;19912;-80
2022/10/13 04:58:22;;;;;;;;;;;;;;;;;;5097327;28;19916;-80
2022/10/13 05:00:48;;;;;;;;;;;;;;;;;;5096586;28;19908;-80
2022/10/13 05:03:14;;;;;;;;;;;;;;;;;;5096063;28;19908;-81
2022/10/13 05:05:41;;;;;;;;;;;;;;;;;;5096919;28;20361;-80
2022/10/13 05:08:07;;;;;;;;;;;;;;;;;;5096443;28;20383;-80
2022/10/13 05:10:33;;;;;;;;;;;;;;;;;;5095942;28;19908;-80
2022/10/13 05:12:58;;;;;;;;;;;;;;;;;;5096387;28;19915;-80
2022/10/13 05:16:40;;;;;;;;;;;;;;;;;;5111513;27;19916;-80
2022/10/13 05:19:06;;;;;;;;;;;;;;;;;;5111380;28;20002;-80
2022/10/13 05:21:32;;;;;;;;;;;;;;;;;;5109771;28;19995;-79
2022/10/13 05:23:58;;;;;;;;;;;;;;;;;;5111957;27;19908;-78
2022/10/13 05:26:28;;;;;;;;;;;;;;;;;;5109156;28;20002;-76
2022/10/13 05:28:54;;;;;;;;;;;;;;;;;;5098602;28;20280;-78
2022/10/13 05:31:20;;;;;;;;;;;;;;;;;;5107307;28;20383;-74
2022/10/13 05:33:46;;;;;;;;;;;;;;;;;;5108020;28;19955;-78
2022/10/13 05:36:12;;;;;;;;;;;;;;;;;;5107720;28;20287;-77
2022/10/13 05:38:39;;;;;;;;;;;;;;;;;;5119669;28;19912;-80
2022/10/13 05:42:46;;;;;;;;;;;;;;;;;;5047596;27;19935;-78
2022/10/13 05:45:14;;;;;;;;;;;;;;;;;;5045781;28;19959;-78
2022/10/13 05:47:42;;;;;;;;;;;;;;;;;;5048788;28;19921;-75
2022/10/13 05:50:08;;;;;;;;;;;;;;;;;;5044667;28;20002;-78
2022/10/13 05:52:36;;;;;;;;;;;;;;;;;;5039668;28;19917;-76
2022/10/13 05:55:02;;;;;;;;;;;;;;;;;;5036014;28;19913;-73
2022/10/13 05:57:31;;;;;;;;;;;;;;;;;;5040208;28;19916;-76
2022/10/13 06:00:00;;;;;;;;;;;;;;;;;;5042401;28;20035;-76
2022/10/13 06:02:26;;;;;;;;;;;;;;;;;;5058628;28;19928;-80
2022/10/13 06:04:52;;;;;;;;;;;;;;;;;;5049285;28;19921;-80
2022/10/13 06:07:19;;;;;;;;;;;;;;;;;;5043653;28;19913;-79
2022/10/13 06:09:47;;;;;;;;;;;;;;;;;;5048829;28;20377;-81
2022/10/13 06:12:13;;;;;;;;;;;;;;;;;;5045958;28;20277;-78
2022/10/13 06:14:39;;;;;;;;;;;;;;;;;;5044881;28;19932;-77
2022/10/13 06:17:05;;;;;;;;;;;;;;;;;;5049077;28;19913;-79
2022/10/13 06:19:32;;;;;;;;;;;;;;;;;;5046206;28;19921;-76
2022/10/13 06:21:59;;;;;;;;;;;;;;;;;;5047143;28;19920;-79
2022/10/13 06:25:57;;;;;;;;;;;;;;;;;;5056165;27;19928;-76
2022/10/13 06:28:23;;;;;;;;;;;;;;;;;;5055143;28;19928;-80
2022/10/13 06:30:54;;;;;;;;;;;;;;;;;;5066793;28;19912;-79
2022/10/13 06:33:21;;;;;;;;;;;;;;;;;;5067397;28;19920;-78
2022/10/13 06:36:42;;;;;;;;;;;;;;;;;;5101361;27;19916;-81
2022/10/13 06:40:32;;;;;;;;;;;;;;;;;;5149696;27;19917;-80
2022/10/13 06:42:59;;;;;;;;;;;;;;;;;;5132697;27;19911;-76
2022/10/13 06:45:25;;;;;;;;;;;;;;;;;;5132390;27;19936;-78
2022/10/13 06:50:54;;;;;;;;;;;;;;;;;;5163252;27;19967;-77
2022/10/13 06:53:20;;;;;;;;;;;;;;;;;;5149247;27;19919;-76
2022/10/13 06:55:46;;;;;;;;;;;;;;;;;;5139267;27;19939;-73
2022/10/13 06:58:12;;;;;;;;;;;;;;;;;;5132897;27;19960;-74
2022/10/13 07:00:38;;;;;;;;;;;;;;;;;;5149440;27;20385;-75
2022/10/13 07:03:04;;;;;;;;;;;;;;;;;;5149808;27;20282;-75
2022/10/13 07:05:30;;;;;;;;;;;;;;;;;;5149185;27;19911;-75
2022/10/13 07:07:56;;;;;;;;;;;;;;;;;;5150382;27;19908;-75
2022/10/13 07:13:10;;;;;;;;;;;;;;;;;;5089555;28;19916;-77
2022/10/13 07:16:36;;;;;;;;;;;;;;;;;;5152599;27;20367;-74
2022/10/13 07:19:03;;;;;;;;;;;;;;;;;;5139560;27;19919;-75
2022/10/13 07:21:29;;;;;;;;;;;;;;;;;;5130235;27;19968;-74
2022/10/13 07:24:14;;;;;;;;;;;;;;;;;;5052282;28;19932;-78
2022/10/13 07:26:40;;;;;;;;;;;;;;;;;;5036845;28;19917;-75
2022/10/13 07:29:06;;;;;;;;;;;;;;;;;;5043819;28;20389;-75
2022/10/13 07:33:20;;;;;;;;;;;;;;;;;;5030174;27;2758027;-76
2022/10/13 07:35:46;;;;;;;;;;;;;;;;;;5108736;28;19922;-75
2022/10/13 07:38:12;;;;;;;;;;;;;;;;;;5100196;28;19991;-75
2022/10/13 07:40:38;;;;;;;;;;;;;;;;;;5106660;28;19912;-77
2022/10/13 07:43:07;;;;;;;;;;;;;;;;;;5093521;28;19998;-74
2022/10/13 07:45:33;;;;;;;;;;;;;;;;;;5112587;28;19929;-78
2022/10/13 07:47:59;;;;;;;;;;;;;;;;;;5113783;28;20503;-80
2022/10/13 07:50:25;;;;;;;;;;;;;;;;;;5114709;28;19915;-76
2022/10/13 07:52:51;;;;;;;;;;;;;;;;;;5122615;28;19934;-73
2022/10/13 07:55:17;;;;;;;;;;;;;;;;;;5103875;28;19952;-77
2022/10/13 07:57:43;;;;;;;;;;;;;;;;;;5120831;28;19943;-77
2022/10/13 08:00:10;;;;;;;;;;;;;;;;;;5099246;28;19912;-75
2022/10/13 08:02:35;;;;;;;;;;;;;;;;;;5120801;28;19908;-75
2022/10/13 08:05:01;;;;;;;;;;;;;;;;;;5110845;28;19943;-76
2022/10/13 08:07:27;;;;;;;;;;;;;;;;;;5106996;28;19914;-78
2022/10/13 08:12:31;;;;;;;;;;;;;;;;;;5107818;27;19916;-75
2022/10/13 08:14:57;;;;;;;;;;;;;;;;;;5106464;28;19920;-75
2022/10/13 08:17:23;;;;;;;;;;;;;;;;;;5105654;28;20280;-75
2022/10/13 08:19:49;;;;;;;;;;;;;;;;;;5106060;28;19974;-76
2022/10/13 08:24:24;;;;;;;;;;;;;;;;;;5083874;27;20392;-77
2022/10/13 08:26:50;;;;;;;;;;;;;;;;;;5072140;28;19919;-78
2022/10/13 08:30:41;;;;;;;;;;;;;;;;;;5106388;27;19923;-76
2022/10/13 08:33:07;;;;;;;;;;;;;;;;;;5105895;28;19951;-75
2022/10/13 08:36:47;;;;;;;;;;;;;;;;;;5168643;27;19927;-75
2022/10/13 08:39:13;;;;;;;;;;;;;;;;;;5133540;27;19965;-78
2022/10/13 08:41:39;;;;;;;;;;;;;;;;;;5108813;28;20014;-75
2022/10/13 08:44:05;;;;;;;;;;;;;;;;;;5130529;28;20375;-80
2022/10/13 08:46:31;;;;;;;;;;;;;;;;;;5122581;27;20279;-79
2022/10/13 08:48:57;;;;;;;;;;;;;;;;;;5151252;27;19961;-81
2022/10/13 08:51:23;;;;;;;;;;;;;;;;;;5132148;27;19914;-80
2022/10/13 08:53:49;;;;;;;;;;;;;;;;;;5151174;27;19907;-80
2022/10/13 08:56:15;;;;;;;;;;;;;;;;;;5138187;27;20076;-78
2022/10/13 08:58:41;;;;;;;;;;;;;;;;;;5151443;27;20014;-80
2022/10/13 09:01:07;;;;;;;;;;;;;;;;;;5150096;27;19957;-77
2022/10/13 09:03:33;;;;;;;;;;;;;;;;;;5149517;27;19950;-78
2022/10/13 09:05:59;;;;;;;;;;;;;;;;;;5153304;27;19919;-76
2022/10/13 09:08:25;;;;;;;;;;;;;;;;;;5162449;27;19907;-75
2022/10/13 09:10:52;;;;;;;;;;;;;;;;;;5170991;27;19930;-78
2022/10/13 09:13:17;;;;;;;;;;;;;;;;;;5170536;27;20467;-76
2022/10/13 09:15:43;;;;;;;;;;;;;;;;;;5141186;27;19916;-77
2022/10/13 09:18:09;;;;;;;;;;;;;;;;;;5129202;28;19943;-77
2022/10/13 09:20:35;;;;;;;;;;;;;;;;;;5129781;28;20287;-76
2022/10/13 09:23:02;;;;;;;;;;;;;;;;;;5128228;28;20006;-77
2022/10/13 09:25:28;;;;;;;;;;;;;;;;;;5128053;28;19907;-75
2022/10/13 09:27:55;;;;;;;;;;;;;;;;;;5145767;27;19933;-77
2022/10/13 09:30:21;;;;;;;;;;;;;;;;;;5149746;27;20040;-77
2022/10/13 09:32:47;;;;;;;;;;;;;;;;;;5130136;27;20435;-78
2022/10/13 09:37:42;;;;;;;;;;;;;;;;;;5106903;27;19919;-78
2022/10/13 09:40:08;;;;;;;;;;;;;;;;;;5088293;28;19912;-76
2022/10/13 09:42:34;;;;;;;;;;;;;;;;;;5088834;28;19954;-77
2022/10/13 09:45:00;;;;;;;;;;;;;;;;;;5088481;28;19912;-78
2022/10/13 09:47:26;;;;;;;;;;;;;;;;;;5088958;28;19908;-75
2022/10/13 09:49:52;;;;;;;;;;;;;;;;;;5089991;28;19970;-74
2022/10/13 09:52:18;;;;;;;;;;;;;;;;;;5090040;28;20369;-75
2022/10/13 09:54:45;;;;;;;;;;;;;;;;;;5090063;28;20285;-75
2022/10/13 09:57:20;;;;;;;;;;;;;;;;;;5090821;27;19966;-74
2022/10/13 09:59:46;;;;;;;;;;;;;;;;;;5090892;28;19951;-76
2022/10/13 10:02:12;;;;;;;;;;;;;;;;;;5083727;28;20382;-73
2022/10/13 10:04:41;;;;;;;;;;;;;;;;;;5070168;28;19916;-73
2022/10/13 10:09:37;;;;;;;;;;;;;;;;;;5069469;28;19913;-76
2022/10/13 10:12:03;;;;;;;;;;;;;;;;;;5060634;28;19919;-72
2022/10/13 10:16:05;;;;;;;;;;;;;;;;;;5090108;27;19913;-75
2022/10/13 10:18:31;;;;;;;;;;;;;;;;;;5087071;28;20007;-72
2022/10/13 10:23:21;;;;;;;;;;;;;;;;;;5088026;27;19923;-73
2022/10/13 10:25:47;;;;;;;;;;;;;;;;;;5089984;28;19912;-77
2022/10/13 10:28:13;;;;;;;;;;;;;;;;;;5087381;28;19909;-74
2022/10/13 10:30:39;;;;;;;;;;;;;;;;;;5088730;28;19918;-75
2022/10/13 10:33:05;;;;;;;;;;;;;;;;;;5088334;28;20296;-74
2022/10/13 10:37:36;;;;;;;;;;;;;;;;;;5086849;27;19921;-72
2022/10/13 10:40:02;;;;;;;;;;;;;;;;;;5089094;28;19918;-73
2022/10/13 10:42:29;;;;;;;;;;;;;;;;;;5087272;28;19987;-74
2022/10/13 10:47:22;;;;;;;;;;;;;;;;;;5151314;27;19919;-77
2022/10/13 10:49:48;;;;;;;;;;;;;;;;;;5135538;27;20392;-75
2022/10/13 10:52:14;;;;;;;;;;;;;;;;;;5145093;27;19933;-73
2022/10/13 10:56:49;;;;;;;;;;;;;;;;;;5104796;27;20292;-74
2022/10/13 10:59:15;;;;;;;;;;;;;;;;;;5110608;28;19912;-74
2022/10/13 11:02:14;;;;;;;;;;;;;;;;;;5150380;27;20401;-75
2022/10/13 11:04:40;;;;;;;;;;;;;;;;;;5150959;27;19912;-75
2022/10/13 11:08:14;;;;;;;;;;;;;;;;;;4984293;27;4060113;-75
2022/10/13 11:10:40;;;;;;;;;;;;;;;;;;5148641;27;19971;-75
2022/10/13 11:14:35;;;;;;;;;;;;;;;;;;5169811;27;20422;-71
2022/10/13 11:18:58;;;;;;;;;;;;;;;;;;5105124;27;19935;-71
2022/10/13 11:21:24;;;;;;;;;;;;;;;;;;5099799;28;19916;-72
2022/10/13 11:24:42;;;;;;;;;;;;;;;;;;5106550;27;19923;-71
2022/10/13 11:27:09;;;;;;;;;;;;;;;;;;5107269;28;20326;-70
2022/10/13 11:29:35;;;;;;;;;;;;;;;;;;5108246;28;19916;-70
2022/10/13 11:35:57;;;;;;;;;;;;;;;;;;5172391;27;20002;-70
2022/10/13 11:39:26;;;;;;;;;;;;;;;;;;5070135;27;19913;-70
2022/10/13 11:44:54;;;;;;;;;;;;;;;;;;5110261;27;19916;-76
2022/10/13 11:48:24;;;;;;;;;;;;;;;;;;5110202;27;20683;-74
2022/10/13 11:50:50;;;;;;;;;;;;;;;;;;5109889;28;19919;-73
2022/10/13 11:53:16;;;;;;;;;;;;;;;;;;5109851;28;19999;-74
2022/10/13 11:58:05;;;;;;;;;;;;;;;;;;5110325;27;19922;-73
2022/10/13 12:01:02;;;;;;;;;;;;;;;;;;5090252;27;19912;-72
2022/10/13 12:03:28;;;;;;;;;;;;;;;;;;5089776;28;19912;-72
2022/10/13 12:05:54;;;;;;;;;;;;;;;;;;5089843;28;20335;-73
2022/10/13 12:08:20;;;;;;;;;;;;;;;;;;5089382;28;19955;-74
2022/10/13 12:10:46;;;;;;;;;;;;;;;;;;5089489;28;19914;-74
2022/10/13 12:13:12;;;;;;;;;;;;;;;;;;5089555;28;20348;-73
2022/10/13 12:15:38;;;;;;;;;;;;;;;;;;5088765;28;19909;-73
2022/10/13 12:18:04;;;;;;;;;;;;;;;;;;5085738;28;19908;-71
2022/10/13 12:22:46;;;;;;;;;;;;;;;;;;5070385;28;19913;-74
2022/10/13 12:25:12;;;;;;;;;;;;;;;;;;5069734;28;19912;-76
2022/10/13 12:28:08;;;;;;;;;;;;;;;;;;5115090;27;19916;-75
2022/10/13 12:30:36;;;;;;;;;;;;;;;;;;5130779;27;20002;-74
2022/10/13 12:33:02;;;;;;;;;;;;;;;;;;5131248;27;20321;-72
2022/10/13 12:35:28;;;;;;;;;;;;;;;;;;5131422;27;19915;-76
2022/10/13 12:37:54;;;;;;;;;;;;;;;;;;5129565;28;19947;-74
2022/10/13 12:41:19;;;;;;;;;;;;;;;;;;5109920;27;20295;-74
2022/10/13 12:45:29;;;;;;;;;;;;;;;;;;5110010;27;19913;-73
2022/10/13 12:47:55;;;;;;;;;;;;;;;;;;5109522;28;20003;-73
2022/10/13 12:50:21;;;;;;;;;;;;;;;;;;5110399;28;19995;-74
2022/10/13 12:52:47;;;;;;;;;;;;;;;;;;5110886;28;19919;-75
2022/10/13 12:55:13;;;;;;;;;;;;;;;;;;5109668;28;19915;-74
2022/10/13 12:57:40;;;;;;;;;;;;;;;;;;5109823;28;20209;-74
2022/10/13 13:00:06;;;;;;;;;;;;;;;;;;5108535;28;20368;-74
2022/10/13 13:02:32;;;;;;;;;;;;;;;;;;5107518;28;19959;-73
2022/10/13 13:09:09;;;;;;;;;;;;;;;;;;5109056;27;20380;-74
2022/10/13 13:11:35;;;;;;;;;;;;;;;;;;5109359;28;19912;-75
2022/10/13 13:14:01;;;;;;;;;;;;;;;;;;5110539;28;20286;-78
2022/10/13 13:16:28;;;;;;;;;;;;;;;;;;5110414;28;19951;-78
2022/10/13 13:20:13;;;;;;;;;;;;;;;;;;5111415;27;19915;-78
2022/10/13 13:22:39;;;;;;;;;;;;;;;;;;5110868;28;19918;-77
2022/10/13 13:27:31;;;;;;;;;;;;;;;;;;5090046;27;19918;-78
2022/10/13 13:30:39;;;;;;;;;;;;;;;;;;5111667;27;20265;-79
2022/10/13 13:33:05;;;;;;;;;;;;;;;;;;5111753;28;19919;-78
2022/10/13 13:35:53;;;;;;;;;;;;;;;;;;5112055;27;19916;-79
2022/10/13 13:38:19;;;;;;;;;;;;;;;;;;5110549;28;19998;-78
2022/10/13 13:40:44;;;;;;;;;;;;;;;;;;5109172;28;20368;-78
2022/10/13 13:43:10;;;;;;;;;;;;;;;;;;5108029;28;19954;-78
2022/10/13 13:45:36;;;;;;;;;;;;;;;;;;5110042;28;19908;-78
2022/10/13 13:48:02;;;;;;;;;;;;;;;;;;5110684;28;19916;-78
2022/10/13 13:50:28;;;;;;;;;;;;;;;;;;5109056;28;19947;-78
2022/10/13 13:53:52;;;;;;;;;;;;;;;;;;5111147;27;19917;-77
2022/10/13 13:58:32;;;;;;;;;;;;;;;;;;5111267;27;20304;-78
2022/10/13 14:00:58;;;;;;;;;;;;;;;;;;5112132;28;20010;-79
2022/10/13 14:04:33;;;;;;;;;;;;;;;;;;5111762;27;20376;-79
2022/10/13 14:06:59;;;;;;;;;;;;;;;;;;5110454;28;20007;-78
2022/10/13 14:09:25;;;;;;;;;;;;;;;;;;5111732;28;20334;-79
2022/10/13 14:11:51;;;;;;;;;;;;;;;;;;5111326;28;19908;-78
2022/10/13 14:16:22;;;;;;;;;;;;;;;;;;5112120;27;19938;-78
2022/10/13 14:18:48;;;;;;;;;;;;;;;;;;5111414;28;20427;-78
2022/10/13 14:21:14;;;;;;;;;;;;;;;;;;5111709;28;19953;-79
2022/10/13 14:23:44;;;;;;;;;;;;;;;;;;5111661;28;19915;-77
2022/10/13 14:26:10;;;;;;;;;;;;;;;;;;5110458;28;19961;-80
2022/10/13 14:28:36;;;;;;;;;;;;;;;;;;5111728;28;19908;-80
2022/10/13 14:31:02;;;;;;;;;;;;;;;;;;5111595;28;19912;-80
2022/10/13 14:33:28;;;;;;;;;;;;;;;;;;5111125;28;19908;-80
2022/10/13 14:35:54;;;;;;;;;;;;;;;;;;5110247;28;19961;-80
2022/10/13 14:38:20;;;;;;;;;;;;;;;;;;5111542;28;19915;-80
2022/10/13 14:40:46;;;;;;;;;;;;;;;;;;5111000;28;20361;-79
2022/10/13 14:43:11;;;;;;;;;;;;;;;;;;5111336;28;20322;-80
2022/10/13 14:45:37;;;;;;;;;;;;;;;;;;5110790;28;19931;-80
2022/10/13 14:48:03;;;;;;;;;;;;;;;;;;5109941;28;19946;-80
2022/10/13 14:50:29;;;;;;;;;;;;;;;;;;5109860;28;19908;-80
2022/10/13 14:52:55;;;;;;;;;;;;;;;;;;5110797;28;19919;-79
2022/10/13 14:55:21;;;;;;;;;;;;;;;;;;5111357;28;19965;-80
2022/10/13 14:57:47;;;;;;;;;;;;;;;;;;5111067;28;20440;-81
2022/10/13 15:00:13;;;;;;;;;;;;;;;;;;5107503;28;19908;-81
2022/10/13 15:02:39;;;;;;;;;;;;;;;;;;5121082;28;19908;-80
2022/10/13 15:05:05;;;;;;;;;;;;;;;;;;5131299;27;19908;-80
2022/10/13 15:07:31;;;;;;;;;;;;;;;;;;5129488;28;20433;-80
2022/10/13 15:11:26;;;;;;;;;;;;;;;;;;5111523;27;20295;-81
2022/10/13 15:13:52;;;;;;;;;;;;;;;;;;5111398;28;20010;-80
2022/10/13 15:16:18;;;;;;;;;;;;;;;;;;5111669;28;19908;-80
2022/10/13 15:20:14;;;;;;;;;;;;;;;;;;5091385;27;19917;-79
2022/10/13 15:22:40;;;;;;;;;;;;;;;;;;5091007;28;20003;-80
2022/10/13 15:25:08;;;;;;;;;;;;;;;;;;5090034;28;20027;-80
2022/10/13 15:27:34;;;;;;;;;;;;;;;;;;5091491;28;20438;-80
2022/10/13 15:30:00;;;;;;;;;;;;;;;;;;5090823;28;19909;-80
2022/10/13 15:32:26;;;;;;;;;;;;;;;;;;5091209;28;19994;-80
2022/10/13 15:37:01;;;;;;;;;;;;;;;;;;5070809;28;19923;-79
2022/10/13 15:39:27;;;;;;;;;;;;;;;;;;5071343;28;20007;-81
2022/10/13 15:51:08;;;;;;;;;;;;;;;;;;5111870;27;19918;-79
2022/10/13 15:53:34;;;;;;;;;;;;;;;;;;5110342;28;19998;-80
2022/10/13 15:56:00;;;;;;;;;;;;;;;;;;5111238;28;19908;-79
2022/10/13 15:59:24;;;;;;;;;;;;;;;;;;5091489;27;19912;-80
2022/10/13 16:01:50;;;;;;;;;;;;;;;;;;5091446;28;19913;-80
2022/10/13 16:10:26;;;;;;;;;;;;;;;;;;5111855;27;20291;-81
2022/10/13 16:12:52;;;;;;;;;;;;;;;;;;5111725;28;20002;-79
2022/10/13 16:17:08;;;;;;;;;;;;;;;;;;5091179;27;19916;-80
2022/10/13 16:19:34;;;;;;;;;;;;;;;;;;5090175;28;19913;-79
2022/10/13 16:22:00;;;;;;;;;;;;;;;;;;5091602;28;20006;-81
2022/10/13 16:24:26;;;;;;;;;;;;;;;;;;5090984;28;19909;-80
2022/10/13 16:26:52;;;;;;;;;;;;;;;;;;5091300;28;19912;-80
2022/10/13 16:29:18;;;;;;;;;;;;;;;;;;5089998;28;19916;-80
2022/10/13 16:31:44;;;;;;;;;;;;;;;;;;5090904;28;19909;-81
2022/10/13 16:34:10;;;;;;;;;;;;;;;;;;5091116;28;19909;-80
2022/10/13 16:36:36;;;;;;;;;;;;;;;;;;5089719;28;20372;-79
2022/10/13 16:39:02;;;;;;;;;;;;;;;;;;5090624;28;20262;-79
2022/10/13 16:42:45;;;;;;;;;;;;;;;;;;5112527;27;19916;-80
2022/10/13 16:45:12;;;;;;;;;;;;;;;;;;5110052;28;20316;-79
2022/10/13 16:49:42;;;;;;;;;;;;;;;;;;5112155;27;19922;-79
2022/10/13 16:52:08;;;;;;;;;;;;;;;;;;5111387;28;19965;-78
2022/10/13 16:54:34;;;;;;;;;;;;;;;;;;5111730;28;19912;-79
2022/10/13 16:57:00;;;;;;;;;;;;;;;;;;5111685;28;19908;-79
2022/10/13 16:59:26;;;;;;;;;;;;;;;;;;5111240;28;19908;-79
2022/10/13 17:01:52;;;;;;;;;;;;;;;;;;5111526;28;20356;-79
2022/10/13 17:04:18;;;;;;;;;;;;;;;;;;5111907;28;19915;-80
2022/10/13 17:06:44;;;;;;;;;;;;;;;;;;5111053;28;19969;-79
2022/10/13 17:10:38;;;;;;;;;;;;;;;;;;5112151;27;19923;-80
2022/10/13 17:13:04;;;;;;;;;;;;;;;;;;5111738;28;20006;-80
2022/10/13 17:15:29;;;;;;;;;;;;;;;;;;5111341;28;19953;-80
2022/10/13 17:17:56;;;;;;;;;;;;;;;;;;5111320;28;19952;-79
2022/10/13 17:20:21;;;;;;;;;;;;;;;;;;5109950;28;19994;-80
2022/10/13 17:22:48;;;;;;;;;;;;;;;;;;5111451;28;19954;-80
2022/10/13 17:25:14;;;;;;;;;;;;;;;;;;5111362;28;19908;-79
2022/10/13 17:27:40;;;;;;;;;;;;;;;;;;5109775;28;20257;-79
2022/10/13 17:30:06;;;;;;;;;;;;;;;;;;5111297;28;20321;-79
2022/10/13 17:32:31;;;;;;;;;;;;;;;;;;5111454;28;19908;-79
2022/10/13 17:34:57;;;;;;;;;;;;;;;;;;5110892;28;19965;-79
2022/10/13 17:37:23;;;;;;;;;;;;;;;;;;5111210;28;19909;-79
2022/10/13 17:39:49;;;;;;;;;;;;;;;;;;5111394;28;19915;-78
2022/10/13 17:43:54;;;;;;;;;;;;;;;;;;5112239;27;19912;-79
2022/10/13 17:46:20;;;;;;;;;;;;;;;;;;5111682;28;20006;-79
2022/10/13 17:51:14;;;;;;;;;;;;;;;;;;5111771;27;19912;-78
2022/10/13 17:53:40;;;;;;;;;;;;;;;;;;5111790;28;19912;-80
2022/10/13 17:57:04;;;;;;;;;;;;;;;;;;5091188;27;19917;-80
2022/10/13 18:00:26;;;;;;;;;;;;;;;;;;5112146;27;19916;-78
2022/10/13 18:02:52;;;;;;;;;;;;;;;;;;5110051;28;20018;-80
2022/10/13 18:05:18;;;;;;;;;;;;;;;;;;5111712;28;19912;-79
2022/10/13 18:07:44;;;;;;;;;;;;;;;;;;5111706;28;19999;-79
2022/10/13 18:10:11;;;;;;;;;;;;;;;;;;5111268;28;19908;-81
2022/10/13 18:12:37;;;;;;;;;;;;;;;;;;5111471;28;19914;-78
2022/10/13 18:15:03;;;;;;;;;;;;;;;;;;5111545;28;19912;-79
2022/10/13 18:17:55;;;;;;;;;;;;;;;;;;5111569;27;19916;-80
2022/10/13 18:20:21;;;;;;;;;;;;;;;;;;5111583;28;19957;-78
2022/10/13 18:22:47;;;;;;;;;;;;;;;;;;5110399;28;19908;-78
2022/10/13 18:25:13;;;;;;;;;;;;;;;;;;5110084;28;19914;-80
2022/10/13 18:27:39;;;;;;;;;;;;;;;;;;5111642;28;19909;-80
2022/10/13 18:30:05;;;;;;;;;;;;;;;;;;5111490;28;20383;-80
2022/10/13 18:32:31;;;;;;;;;;;;;;;;;;5111247;28;19908;-80
2022/10/13 18:34:57;;;;;;;;;;;;;;;;;;5111501;28;19969;-79
2022/10/13 18:37:23;;;;;;;;;;;;;;;;;;5111399;28;20396;-80
2022/10/13 18:39:49;;;;;;;;;;;;;;;;;;5111021;28;20378;-80
2022/10/13 18:44:44;;;;;;;;;;;;;;;;;;5111521;27;19922;-79
2022/10/13 18:47:10;;;;;;;;;;;;;;;;;;5111756;28;20002;-81